sensor_id;sensor_type;location;lat;lon;timestamp;pressure;altitude;pressure_sealevel;temperature;humidity
9257;BME280;4665;51.368;6.782;2023-04-21T00:02:02;101184.22;;;6.99;100.00
9257;BME280;4665;51.368;6.782;2023-04-21T00:04:27;101203.94;;;7.06;100.00
9257;BME280;4665;51.368;6.782;2023-04-21T00:06:54;101199.22;;;7.10;100.00
9257;BME280;4665;51.368;6.782;2023-04-21T00:09:20;101208.03;;;7.10;100.00
9257;BME280;4665;51.368;6.782;2023-04-21T00:11:46;101206.09;;;7.12;100.00
9257;BME280;4665;51.368;6.782;2023-04-21T00:14:11;101200.09;;;7.10;100.00
9257;BME280;4665;51.368;6.782;2023-04-21T00:16:37;101196.09;;;7.16;100.00
9257;BME280;4665;51.368;6.782;2023-04-21T00:19:02;101190.91;;;7.14;100.00
9257;BME280;4665;51.368;6.782;2023-04-21T00:21:32;101184.06;;;7.12;100.00
9257;BME280;4665;51.368;6.782;2023-04-21T00:23:57;101187.44;;;7.14;100.00
9257;BME280;4665;51.368;6.782;2023-04-21T00:26:23;101177.91;;;7.11;100.00
9257;BME280;4665;51.368;6.782;2023-04-21T00:28:48;101167.59;;;7.08;100.00
9257;BME280;4665;51.368;6.782;2023-04-21T00:31:14;101178.19;;;7.08;100.00
9257;BME280;4665;51.368;6.782;2023-04-21T00:33:39;101172.88;;;7.08;100.00
9257;BME280;4665;51.368;6.782;2023-04-21T00:36:05;101161.66;;;7.05;100.00
9257;BME280;4665;51.368;6.782;2023-04-21T00:38:30;101146.03;;;7.02;100.00
9257;BME280;4665;51.368;6.782;2023-04-21T00:40:56;101155.28;;;7.07;100.00
9257;BME280;4665;51.368;6.782;2023-04-21T00:43:21;101151.69;;;7.08;100.00
9257;BME280;4665;51.368;6.782;2023-04-21T00:45:47;101152.63;;;7.07;100.00
9257;BME280;4665;51.368;6.782;2023-04-21T00:48:12;101148.31;;;7.06;100.00
9257;BME280;4665;51.368;6.782;2023-04-21T00:50:38;101146.25;;;7.10;100.00
9257;BME280;4665;51.368;6.782;2023-04-21T00:53:04;101135.91;;;7.07;100.00
9257;BME280;4665;51.368;6.782;2023-04-21T00:55:29;101141.31;;;7.05;100.00
9257;BME280;4665;51.368;6.782;2023-04-21T00:57:55;101139.38;;;7.07;100.00
9257;BME280;4665;51.368;6.782;2023-04-21T01:00:21;101143.00;;;7.06;100.00
9257;BME280;4665;51.368;6.782;2023-04-21T01:02:47;101157.19;;;7.05;100.00
9257;BME280;4665;51.368;6.782;2023-04-21T01:05:13;101155.28;;;7.07;100.00
9257;BME280;4665;51.368;6.782;2023-04-21T01:07:40;101141.19;;;7.07;100.00
9257;BME280;4665;51.368;6.782;2023-04-21T01:10:07;101149.88;;;7.09;100.00
9257;BME280;4665;51.368;6.782;2023-04-21T01:12:32;101157.09;;;7.07;100.00
9257;BME280;4665;51.368;6.782;2023-04-21T01:14:59;101153.59;;;7.06;100.00
9257;BME280;4665;51.368;6.782;2023-04-21T01:17:25;101147.59;;;7.04;100.00
9257;BME280;4665;51.368;6.782;2023-04-21T01:19:52;101150.72;;;7.09;100.00
9257;BME280;4665;51.368;6.782;2023-04-21T01:22:20;101144.47;;;7.10;100.00
9257;BME280;4665;51.368;6.782;2023-04-21T01:24:47;101126.84;;;7.09;100.00
9257;BME280;4665;51.368;6.782;2023-04-21T01:27:18;101122.66;;;7.07;100.00
9257;BME280;4665;51.368;6.782;2023-04-21T01:29:45;101146.97;;;7.12;100.00
9257;BME280;4665;51.368;6.782;2023-04-21T01:32:17;101136.88;;;7.06;100.00
9257;BME280;4665;51.368;6.782;2023-04-21T01:34:43;101135.06;;;7.06;100.00
9257;BME280;4665;51.368;6.782;2023-04-21T01:37:10;101135.91;;;7.07;100.00
9257;BME280;4665;51.368;6.782;2023-04-21T01:39:41;101130.50;;;7.08;100.00
9257;BME280;4665;51.368;6.782;2023-04-21T01:42:07;101131.31;;;7.09;100.00
9257;BME280;4665;51.368;6.782;2023-04-21T01:44:33;101133.84;;;7.10;100.00
9257;BME280;4665;51.368;6.782;2023-04-21T01:46:59;101134.81;;;7.09;100.00
9257;BME280;4665;51.368;6.782;2023-04-21T01:49:25;101138.06;;;7.13;100.00
9257;BME280;4665;51.368;6.782;2023-04-21T01:51:50;101133.84;;;7.10;100.00
9257;BME280;4665;51.368;6.782;2023-04-21T01:54:15;101126.84;;;7.09;100.00
9257;BME280;4665;51.368;6.782;2023-04-21T01:56:41;101114.59;;;7.08;100.00
9257;BME280;4665;51.368;6.782;2023-04-21T01:59:06;101127.59;;;7.11;100.00
9257;BME280;4665;51.368;6.782;2023-04-21T02:01:32;101123.25;;;7.10;100.00
9257;BME280;4665;51.368;6.782;2023-04-21T02:03:57;101117.97;;;7.10;100.00
9257;BME280;4665;51.368;6.782;2023-04-21T02:06:23;101109.28;;;7.08;100.00
9257;BME280;4665;51.368;6.782;2023-04-21T02:08:48;101127.59;;;7.11;100.00
9257;BME280;4665;51.368;6.782;2023-04-21T02:11:14;101129.41;;;7.11;100.00
9257;BME280;4665;51.368;6.782;2023-04-21T02:13:39;101127.00;;;7.08;100.00
9257;BME280;4665;51.368;6.782;2023-04-21T02:16:05;101126.84;;;7.09;100.00
9257;BME280;4665;51.368;6.782;2023-04-21T02:18:31;101115.44;;;7.09;100.00
9257;BME280;4665;51.368;6.782;2023-04-21T02:20:56;101118.91;;;7.09;100.00
9257;BME280;4665;51.368;6.782;2023-04-21T02:23:22;101123.38;;;7.09;100.00
9257;BME280;4665;51.368;6.782;2023-04-21T02:25:47;101119.75;;;7.10;100.00
9257;BME280;4665;51.368;6.782;2023-04-21T02:28:13;101114.69;;;7.07;100.00
9257;BME280;4665;51.368;6.782;2023-04-21T02:30:38;101112.66;;;7.10;100.00
9257;BME280;4665;51.368;6.782;2023-04-21T02:33:04;101110.97;;;7.09;100.00
9257;BME280;4665;51.368;6.782;2023-04-21T02:35:30;101110.97;;;7.09;100.00
9257;BME280;4665;51.368;6.782;2023-04-21T02:37:57;101108.06;;;7.12;100.00
9257;BME280;4665;51.368;6.782;2023-04-21T02:40:23;101105.41;;;7.12;100.00
9257;BME280;4665;51.368;6.782;2023-04-21T02:42:48;101110.72;;;7.12;100.00
9257;BME280;4665;51.368;6.782;2023-04-21T02:45:14;101121.31;;;7.12;100.00
9257;BME280;4665;51.368;6.782;2023-04-21T02:47:39;101110.13;;;7.09;100.00
9257;BME280;4665;51.368;6.782;2023-04-21T02:50:05;101113.50;;;7.11;100.00
9257;BME280;4665;51.368;6.782;2023-04-21T02:52:35;101115.16;;;7.12;100.00
9257;BME280;4665;51.368;6.782;2023-04-21T02:55:01;101114.44;;;7.10;100.00
9257;BME280;4665;51.368;6.782;2023-04-21T02:57:27;101102.06;;;7.10;100.00
9257;BME280;4665;51.368;6.782;2023-04-21T02:59:52;101101.91;;;7.12;100.00
9257;BME280;4665;51.368;6.782;2023-04-21T03:02:18;101105.28;;;7.14;100.00
9257;BME280;4665;51.368;6.782;2023-04-21T03:04:43;101107.22;;;7.12;100.00
9257;BME280;4665;51.368;6.782;2023-04-21T03:07:12;101113.50;;;7.11;100.00
9257;BME280;4665;51.368;6.782;2023-04-21T03:09:38;101114.59;;;7.08;100.00
9257;BME280;4665;51.368;6.782;2023-04-21T03:12:04;101116.53;;;7.06;100.00
9257;BME280;4665;51.368;6.782;2023-04-21T03:14:29;101114.81;;;7.05;100.00
9257;BME280;4665;51.368;6.782;2023-04-21T03:16:55;101114.81;;;7.05;100.00
9257;BME280;4665;51.368;6.782;2023-04-21T03:19:20;101110.59;;;7.03;100.00
9257;BME280;4665;51.368;6.782;2023-04-21T03:21:46;101109.78;;;7.02;100.00
9257;BME280;4665;51.368;6.782;2023-04-21T03:24:11;101116.06;;;7.01;100.00
9257;BME280;4665;51.368;6.782;2023-04-21T03:26:40;101115.56;;;6.96;100.00
9257;BME280;4665;51.368;6.782;2023-04-21T03:29:06;101125.19;;;6.97;100.00
9257;BME280;4665;51.368;6.782;2023-04-21T03:31:32;101120.63;;;6.99;100.00
9257;BME280;4665;51.368;6.782;2023-04-21T03:33:57;101108.97;;;6.90;100.00
9257;BME280;4665;51.368;6.782;2023-04-21T03:36:23;101124.97;;;6.89;100.00
9257;BME280;4665;51.368;6.782;2023-04-21T03:38:48;101124.00;;;6.90;100.00
9257;BME280;4665;51.368;6.782;2023-04-21T03:41:14;101125.69;;;6.91;100.00
9257;BME280;4665;51.368;6.782;2023-04-21T03:43:39;101126.66;;;6.90;100.00
9257;BME280;4665;51.368;6.782;2023-04-21T03:46:06;101132.19;;;6.87;100.00
9257;BME280;4665;51.368;6.782;2023-04-21T03:48:31;101128.59;;;6.88;100.00
9257;BME280;4665;51.368;6.782;2023-04-21T03:50:57;101125.22;;;6.86;100.00
9257;BME280;4665;51.368;6.782;2023-04-21T03:53:22;101116.78;;;6.81;100.00
9257;BME280;4665;51.368;6.782;2023-04-21T03:55:51;101122.09;;;6.81;100.00
9257;BME280;4665;51.368;6.782;2023-04-21T03:58:16;101124.38;;;6.85;100.00
9257;BME280;4665;51.368;6.782;2023-04-21T04:00:42;101105.38;;;6.80;100.00
9257;BME280;4665;51.368;6.782;2023-04-21T04:03:07;101110.53;;;6.82;100.00
9257;BME280;4665;51.368;6.782;2023-04-21T04:05:34;101112.22;;;6.83;100.00
9257;BME280;4665;51.368;6.782;2023-04-21T04:08:00;101095.34;;;6.84;100.00
9257;BME280;4665;51.368;6.782;2023-04-21T04:10:25;101105.84;;;6.85;100.00
9257;BME280;4665;51.368;6.782;2023-04-21T04:12:51;101111.25;;;6.84;100.00
9257;BME280;4665;51.368;6.782;2023-04-21T04:15:16;101104.50;;;6.80;100.00
9257;BME280;4665;51.368;6.782;2023-04-21T04:17:42;101106.69;;;6.86;100.00
9257;BME280;4665;51.368;6.782;2023-04-21T04:20:08;101112.69;;;6.88;100.00
9257;BME280;4665;51.368;6.782;2023-04-21T04:22:34;101115.44;;;6.86;100.00
9257;BME280;4665;51.368;6.782;2023-04-21T04:24:59;101107.66;;;6.85;100.00
9257;BME280;4665;51.368;6.782;2023-04-21T04:27:28;101111.97;;;6.86;100.00
9257;BME280;4665;51.368;6.782;2023-04-21T04:29:54;101114.63;;;6.86;100.00
9257;BME280;4665;51.368;6.782;2023-04-21T04:32:19;101101.75;;;6.81;100.00
9257;BME280;4665;51.368;6.782;2023-04-21T04:34:45;101117.63;;;6.81;100.00
9257;BME280;4665;51.368;6.782;2023-04-21T04:37:10;101104.66;;;6.78;100.00
9257;BME280;4665;51.368;6.782;2023-04-21T04:39:37;101109.06;;;6.78;100.00
9257;BME280;4665;51.368;6.782;2023-04-21T04:42:05;101112.34;;;6.81;100.00
9257;BME280;4665;51.368;6.782;2023-04-21T04:44:33;101114.88;;;6.83;100.00
9257;BME280;4665;51.368;6.782;2023-04-21T04:46:58;101115.81;;;6.82;100.00
9257;BME280;4665;51.368;6.782;2023-04-21T04:49:24;101110.16;;;6.75;100.00
9257;BME280;4665;51.368;6.782;2023-04-21T04:51:50;101116.31;;;6.76;100.00
9257;BME280;4665;51.368;6.782;2023-04-21T04:54:15;101112.59;;;6.78;100.00
9257;BME280;4665;51.368;6.782;2023-04-21T04:56:41;101119.19;;;6.84;100.00
9257;BME280;4665;51.368;6.782;2023-04-21T04:59:06;101118.34;;;6.83;100.00
9257;BME280;4665;51.368;6.782;2023-04-21T05:01:32;101132.44;;;6.84;100.00
9257;BME280;4665;51.368;6.782;2023-04-21T05:03:58;101128.84;;;6.85;100.00
9257;BME280;4665;51.368;6.782;2023-04-21T05:06:24;101126.31;;;6.83;100.00
9257;BME280;4665;51.368;6.782;2023-04-21T05:08:50;101126.19;;;6.85;100.00
9257;BME280;4665;51.368;6.782;2023-04-21T05:11:18;101127.97;;;6.84;100.00
9257;BME280;4665;51.368;6.782;2023-04-21T05:13:43;101135.56;;;6.89;100.00
9257;BME280;4665;51.368;6.782;2023-04-21T05:16:09;101137.38;;;6.88;100.00
9257;BME280;4665;51.368;6.782;2023-04-21T05:18:35;101133.16;;;6.86;100.00
9257;BME280;4665;51.368;6.782;2023-04-21T05:21:01;101132.19;;;6.87;100.00
9257;BME280;4665;51.368;6.782;2023-04-21T05:23:26;101131.34;;;6.86;100.00
9257;BME280;4665;51.368;6.782;2023-04-21T05:25:51;101131.13;;;6.89;100.00
9257;BME280;4665;51.368;6.782;2023-04-21T05:28:17;101143.50;;;6.89;100.00
9257;BME280;4665;51.368;6.782;2023-04-21T05:30:42;101135.56;;;6.89;100.00
9257;BME280;4665;51.368;6.782;2023-04-21T05:33:08;101129.16;;;6.91;100.00
9257;BME280;4665;51.368;6.782;2023-04-21T05:35:34;101133.88;;;6.99;100.00
9257;BME280;4665;51.368;6.782;2023-04-21T05:37:59;101132.66;;;7.03;100.00
9257;BME280;4665;51.368;6.782;2023-04-21T05:40:25;101143.84;;;7.07;100.00
9257;BME280;4665;51.368;6.782;2023-04-21T05:42:50;101139.00;;;7.12;100.00
9257;BME280;4665;51.368;6.782;2023-04-21T05:45:16;101132.88;;;7.11;100.00
9257;BME280;4665;51.368;6.782;2023-04-21T05:47:41;101147.06;;;7.22;100.00
9257;BME280;4665;51.368;6.782;2023-04-21T05:50:07;101135.25;;;7.26;100.00
9257;BME280;4665;51.368;6.782;2023-04-21T05:52:33;101145.25;;;7.33;100.00
9257;BME280;4665;51.368;6.782;2023-04-21T05:54:59;101139.56;;;7.38;100.00
9257;BME280;4665;51.368;6.782;2023-04-21T05:57:25;101147.00;;;7.44;100.00
9257;BME280;4665;51.368;6.782;2023-04-21T05:59:50;101137.97;;;7.47;100.00
9257;BME280;4665;51.368;6.782;2023-04-21T06:02:16;101141.22;;;7.50;100.00
9257;BME280;4665;51.368;6.782;2023-04-21T06:04:41;101144.59;;;7.52;100.00
9257;BME280;4665;51.368;6.782;2023-04-21T06:07:08;101155.91;;;7.54;100.00
9257;BME280;4665;51.368;6.782;2023-04-21T06:09:35;101142.50;;;7.56;100.00
9257;BME280;4665;51.368;6.782;2023-04-21T06:12:04;101139.63;;;7.59;100.00
9257;BME280;4665;51.368;6.782;2023-04-21T06:14:31;101127.91;;;7.62;100.00
9257;BME280;4665;51.368;6.782;2023-04-21T06:16:56;101132.34;;;7.61;100.00
9257;BME280;4665;51.368;6.782;2023-04-21T06:19:22;101123.44;;;7.62;100.00
9257;BME280;4665;51.368;6.782;2023-04-21T06:21:48;101134.78;;;7.64;100.00
9257;BME280;4665;51.368;6.782;2023-04-21T06:24:13;101142.22;;;7.70;100.00
9257;BME280;4665;51.368;6.782;2023-04-21T06:26:39;101141.97;;;7.73;100.00
9257;BME280;4665;51.368;6.782;2023-04-21T06:29:05;101140.28;;;7.72;100.00
9257;BME280;4665;51.368;6.782;2023-04-21T06:31:30;101144.97;;;7.80;100.00
9257;BME280;4665;51.368;6.782;2023-04-21T06:33:56;101146.25;;;7.86;100.00
9257;BME280;4665;51.368;6.782;2023-04-21T06:36:21;101139.72;;;7.90;100.00
9257;BME280;4665;51.368;6.782;2023-04-21T06:38:47;101136.91;;;7.91;100.00
9257;BME280;4665;51.368;6.782;2023-04-21T06:41:13;101146.06;;;7.98;100.00
9257;BME280;4665;51.368;6.782;2023-04-21T06:43:39;101142.31;;;8.01;100.00
9257;BME280;4665;51.368;6.782;2023-04-21T06:46:04;101124.59;;;8.01;100.00
9257;BME280;4665;51.368;6.782;2023-04-21T06:48:30;101129.50;;;8.06;100.00
9257;BME280;4665;51.368;6.782;2023-04-21T06:50:57;101130.06;;;8.10;100.00
9257;BME280;4665;51.368;6.782;2023-04-21T06:53:23;101126.34;;;8.12;100.00
9257;BME280;4665;51.368;6.782;2023-04-21T06:55:48;101113.47;;;8.08;100.00
9257;BME280;4665;51.368;6.782;2023-04-21T06:58:14;101111.50;;;8.10;100.00
9257;BME280;4665;51.368;6.782;2023-04-21T07:00:40;101126.97;;;8.26;100.00
9257;BME280;4665;51.368;6.782;2023-04-21T07:03:05;101127.53;;;8.29;100.00
9257;BME280;4665;51.368;6.782;2023-04-21T07:05:32;101129.81;;;8.34;100.00
9257;BME280;4665;51.368;6.782;2023-04-21T07:07:57;101128.44;;;8.39;100.00
9257;BME280;4665;51.368;6.782;2023-04-21T07:10:26;101132.41;;;8.45;100.00
9257;BME280;4665;51.368;6.782;2023-04-21T07:12:52;101128.38;;;8.51;100.00
9257;BME280;4665;51.368;6.782;2023-04-21T07:15:19;101126.16;;;8.56;100.00
9257;BME280;4665;51.368;6.782;2023-04-21T07:17:45;101131.94;;;8.61;100.00
9257;BME280;4665;51.368;6.782;2023-04-21T07:20:10;101121.31;;;8.61;100.00
9257;BME280;4665;51.368;6.782;2023-04-21T07:22:36;101123.28;;;8.69;100.00
9257;BME280;4665;51.368;6.782;2023-04-21T07:25:02;101132.81;;;8.71;100.00
9257;BME280;4665;51.368;6.782;2023-04-21T07:27:31;101130.19;;;8.81;100.00
9257;BME280;4665;51.368;6.782;2023-04-21T07:29:56;101132.16;;;8.89;100.00
9257;BME280;4665;51.368;6.782;2023-04-21T07:32:22;101139.31;;;8.98;100.00
9257;BME280;4665;51.368;6.782;2023-04-21T07:34:47;101133.34;;;9.05;100.00
9257;BME280;4665;51.368;6.782;2023-04-21T07:37:13;101126.75;;;9.10;100.00
9257;BME280;4665;51.368;6.782;2023-04-21T07:39:39;101121.03;;;9.14;100.00
9257;BME280;4665;51.368;6.782;2023-04-21T07:42:05;101120.78;;;9.17;100.00
9257;BME280;4665;51.368;6.782;2023-04-21T07:44:33;101117.28;;;9.17;100.00
9257;BME280;4665;51.368;6.782;2023-04-21T07:46:58;101122.63;;;9.26;100.00
9257;BME280;4665;51.368;6.782;2023-04-21T07:49:23;101119.13;;;9.26;100.00
9257;BME280;4665;51.368;6.782;2023-04-21T07:55:07;101117.31;;;9.36;100.00
9257;BME280;4665;51.368;6.782;2023-04-21T07:57:48;101131.84;;;9.42;100.00
9257;BME280;4665;51.368;6.782;2023-04-21T08:00:14;101124.03;;;9.40;100.00
9257;BME280;4665;51.368;6.782;2023-04-21T08:03:02;101129.63;;;9.47;100.00
9257;BME280;4665;51.368;6.782;2023-04-21T08:05:27;101127.94;;;9.46;100.00
9257;BME280;4665;51.368;6.782;2023-04-21T08:08:00;101128.78;;;9.46;100.00
9257;BME280;4665;51.368;6.782;2023-04-21T08:10:26;101131.03;;;9.51;100.00
9257;BME280;4665;51.368;6.782;2023-04-21T08:19:28;101138.88;;;9.72;100.00
9257;BME280;4665;51.368;6.782;2023-04-21T08:21:55;101143.06;;;9.75;100.00
9257;BME280;4665;51.368;6.782;2023-04-21T08:24:21;101132.16;;;9.78;100.00
9257;BME280;4665;51.368;6.782;2023-04-21T08:27:04;101143.91;;;9.85;100.00
9257;BME280;4665;51.368;6.782;2023-04-21T08:29:29;101149.25;;;9.85;100.00
9257;BME280;4665;51.368;6.782;2023-04-21T08:31:55;101144.47;;;9.79;100.00
9257;BME280;4665;51.368;6.782;2023-04-21T08:34:21;101142.38;;;9.73;100.00
9257;BME280;4665;51.368;6.782;2023-04-21T08:40:17;101133.69;;;9.80;100.00
9257;BME280;4665;51.368;6.782;2023-04-21T08:42:44;101140.97;;;9.88;100.00
9257;BME280;4665;51.368;6.782;2023-04-21T08:48:34;101125.94;;;10.06;100.00
9257;BME280;4665;51.368;6.782;2023-04-21T08:51:22;101131.00;;;10.29;100.00
9257;BME280;4665;51.368;6.782;2023-04-21T08:53:48;101120.88;;;10.42;100.00
9257;BME280;4665;51.368;6.782;2023-04-21T08:56:41;101115.94;;;10.28;100.00
9257;BME280;4665;51.368;6.782;2023-04-21T08:59:07;101114.44;;;10.35;100.00
9257;BME280;4665;51.368;6.782;2023-04-21T09:04:50;101097.06;;;10.31;100.00
9257;BME280;4665;51.368;6.782;2023-04-21T09:10:24;101099.31;;;10.26;100.00
9257;BME280;4665;51.368;6.782;2023-04-21T09:13:00;101102.63;;;10.28;100.00
9257;BME280;4665;51.368;6.782;2023-04-21T09:15:37;101108.25;;;10.35;100.00
9257;BME280;4665;51.368;6.782;2023-04-21T09:18:33;101100.25;;;10.44;100.00
9257;BME280;4665;51.368;6.782;2023-04-21T09:21:09;101102.63;;;10.47;100.00
9257;BME280;4665;51.368;6.782;2023-04-21T09:23:48;101099.81;;;10.49;100.00
9257;BME280;4665;51.368;6.782;2023-04-21T09:26:15;101095.31;;;10.49;100.00
9257;BME280;4665;51.368;6.782;2023-04-21T09:28:54;101100.34;;;10.52;100.00
9257;BME280;4665;51.368;6.782;2023-04-21T09:31:22;101110.56;;;10.57;100.00
9257;BME280;4665;51.368;6.782;2023-04-21T09:33:58;101116.03;;;10.65;100.00
9257;BME280;4665;51.368;6.782;2023-04-21T09:36:25;101113.44;;;10.73;100.00
9257;BME280;4665;51.368;6.782;2023-04-21T09:39:07;101102.03;;;10.81;100.00
9257;BME280;4665;51.368;6.782;2023-04-21T09:41:42;101102.97;;;10.90;100.00
9257;BME280;4665;51.368;6.782;2023-04-21T09:44:08;101108.56;;;10.97;100.00
9257;BME280;4665;51.368;6.782;2023-04-21T09:46:34;101101.94;;;11.01;100.00
9257;BME280;4665;51.368;6.782;2023-04-21T09:49:01;101098.13;;;11.03;100.00
9257;BME280;4665;51.368;6.782;2023-04-21T09:51:28;101104.31;;;11.04;100.00
9257;BME280;4665;51.368;6.782;2023-04-21T09:53:59;101106.50;;;11.08;100.00
9257;BME280;4665;51.368;6.782;2023-04-21T09:56:32;101103.72;;;11.10;100.00
9257;BME280;4665;51.368;6.782;2023-04-21T09:59:03;101089.53;;;11.09;100.00
9257;BME280;4665;51.368;6.782;2023-04-21T10:01:30;101084.03;;;11.11;100.00
9257;BME280;4665;51.368;6.782;2023-04-21T10:03:57;101086.44;;;11.14;100.00
9257;BME280;4665;51.368;6.782;2023-04-21T10:06:23;101070.81;;;11.19;100.00
9257;BME280;4665;51.368;6.782;2023-04-21T10:08:49;101083.53;;;11.25;100.00
9257;BME280;4665;51.368;6.782;2023-04-21T10:11:15;101064.84;;;11.25;100.00
9257;BME280;4665;51.368;6.782;2023-04-21T10:13:41;101076.59;;;11.32;100.00
9257;BME280;4665;51.368;6.782;2023-04-21T10:16:08;101080.94;;;11.33;100.00
9257;BME280;4665;51.368;6.782;2023-04-21T10:18:35;101073.63;;;11.35;100.00
9257;BME280;4665;51.368;6.782;2023-04-21T10:21:10;101068.31;;;11.35;100.00
9257;BME280;4665;51.368;6.782;2023-04-21T10:23:42;101064.47;;;11.38;100.00
9257;BME280;4665;51.368;6.782;2023-04-21T10:26:10;101062.97;;;11.35;100.00
9257;BME280;4665;51.368;6.782;2023-04-21T10:31:27;101054.66;;;11.38;100.00
9257;BME280;4665;51.368;6.782;2023-04-21T10:44:43;101048.63;;;11.80;100.00
9257;BME280;4665;51.368;6.782;2023-04-21T10:47:09;101039.66;;;11.82;100.00
9257;BME280;4665;51.368;6.782;2023-04-21T10:49:39;101021.44;;;11.77;100.00
9257;BME280;4665;51.368;6.782;2023-04-21T10:52:06;101028.13;;;11.81;100.00
9257;BME280;4665;51.368;6.782;2023-04-21T10:57:18;101019.25;;;11.98;100.00
9257;BME280;4665;51.368;6.782;2023-04-21T10:59:45;101013.13;;;12.06;100.00
9257;BME280;4665;51.368;6.782;2023-04-21T11:02:12;101011.00;;;12.10;100.00
9257;BME280;4665;51.368;6.782;2023-04-21T11:04:39;101002.78;;;12.11;100.00
9257;BME280;4665;51.368;6.782;2023-04-21T11:07:14;100998.13;;;12.13;100.00
9257;BME280;4665;51.368;6.782;2023-04-21T11:09:42;100985.66;;;12.22;100.00
9257;BME280;4665;51.368;6.782;2023-04-21T11:12:12;100991.63;;;12.50;100.00
9257;BME280;4665;51.368;6.782;2023-04-21T11:14:40;100990.84;;;12.66;100.00
9257;BME280;4665;51.368;6.782;2023-04-21T11:17:16;100980.66;;;12.70;100.00
9257;BME280;4665;51.368;6.782;2023-04-21T11:19:46;100973.63;;;12.69;100.00
9257;BME280;4665;51.368;6.782;2023-04-21T11:22:16;100969.28;;;12.68;100.00
9257;BME280;4665;51.368;6.782;2023-04-21T11:24:46;100972.13;;;12.66;100.00
9257;BME280;4665;51.368;6.782;2023-04-21T11:27:12;100972.75;;;12.60;100.00
9257;BME280;4665;51.368;6.782;2023-04-21T11:29:46;100966.09;;;12.64;100.00
9257;BME280;4665;51.368;6.782;2023-04-21T11:32:12;100969.44;;;12.66;100.00
9257;BME280;4665;51.368;6.782;2023-04-21T11:34:38;100961.44;;;12.66;100.00
9257;BME280;4665;51.368;6.782;2023-04-21T11:37:06;100955.94;;;12.68;100.00
9257;BME280;4665;51.368;6.782;2023-04-21T11:39:32;100958.28;;;12.79;100.00
9257;BME280;4665;51.368;6.782;2023-04-21T11:41:57;100952.28;;;12.85;100.00
9257;BME280;4665;51.368;6.782;2023-04-21T11:44:35;100950.97;;;12.97;100.00
9257;BME280;4665;51.368;6.782;2023-04-21T11:47:18;100947.44;;;13.05;100.00
9257;BME280;4665;51.368;6.782;2023-04-21T11:49:54;100938.25;;;13.24;100.00
9257;BME280;4665;51.368;6.782;2023-04-21T11:57:28;100914.47;;;13.70;100.00
9257;BME280;4665;51.368;6.782;2023-04-21T12:00:00;100914.88;;;13.90;100.00
9257;BME280;4665;51.368;6.782;2023-04-21T12:02:31;100918.22;;;13.92;100.00
9257;BME280;4665;51.368;6.782;2023-04-21T12:05:11;100916.34;;;14.01;100.00
9257;BME280;4665;51.368;6.782;2023-04-21T12:07:40;100917.69;;;14.05;100.00
9257;BME280;4665;51.368;6.782;2023-04-21T12:10:11;100904.66;;;14.02;100.00
9257;BME280;4665;51.368;6.782;2023-04-21T12:12:38;100906.44;;;14.09;100.00
9257;BME280;4665;51.368;6.782;2023-04-21T12:15:05;100904.06;;;14.15;100.00
9257;BME280;4665;51.368;6.782;2023-04-21T12:17:44;100895.69;;;14.18;100.00
9257;BME280;4665;51.368;6.782;2023-04-21T12:20:10;100895.59;;;14.34;100.00
9257;BME280;4665;51.368;6.782;2023-04-21T12:22:36;100885.00;;;14.41;100.00
9257;BME280;4665;51.368;6.782;2023-04-21T12:25:03;100869.53;;;14.51;100.00
9257;BME280;4665;51.368;6.782;2023-04-21T12:27:28;100866.00;;;14.59;100.00
9257;BME280;4665;51.368;6.782;2023-04-21T12:29:54;100853.47;;;14.74;100.00
9257;BME280;4665;51.368;6.782;2023-04-21T12:32:20;100846.91;;;14.77;100.00
9257;BME280;4665;51.368;6.782;2023-04-21T12:34:45;100854.34;;;14.89;100.00
9257;BME280;4665;51.368;6.782;2023-04-21T12:37:11;100848.25;;;14.96;100.00
9257;BME280;4665;51.368;6.782;2023-04-21T12:39:36;100839.66;;;15.00;100.00
9257;BME280;4665;51.368;6.782;2023-04-21T12:42:02;100838.13;;;15.21;100.00
9257;BME280;4665;51.368;6.782;2023-04-21T12:44:27;100827.94;;;15.16;100.00
9257;BME280;4665;51.368;6.782;2023-04-21T12:46:53;100831.72;;;15.22;100.00
9257;BME280;4665;51.368;6.782;2023-04-21T12:49:19;100833.03;;;15.26;100.00
9257;BME280;4665;51.368;6.782;2023-04-21T12:51:51;100818.41;;;15.13;100.00
9257;BME280;4665;51.368;6.782;2023-04-21T12:54:16;100822.31;;;15.11;100.00
9257;BME280;4665;51.368;6.782;2023-04-21T12:56:42;100812.13;;;15.06;100.00
9257;BME280;4665;51.368;6.782;2023-04-21T12:59:09;100821.09;;;15.13;100.00
9257;BME280;4665;51.368;6.782;2023-04-21T13:01:37;100820.72;;;15.31;100.00
9257;BME280;4665;51.368;6.782;2023-04-21T13:04:03;100813.25;;;15.42;100.00
9257;BME280;4665;51.368;6.782;2023-04-21T13:06:29;100813.34;;;15.48;100.00
9257;BME280;4665;51.368;6.782;2023-04-21T13:08:55;100815.38;;;15.46;100.00
9257;BME280;4665;51.368;6.782;2023-04-21T13:11:21;100827.97;;;15.46;100.00
9257;BME280;4665;51.368;6.782;2023-04-21T13:13:47;100825.63;;;15.43;100.00
9257;BME280;4665;51.368;6.782;2023-04-21T13:16:12;100809.53;;;15.28;100.00
9257;BME280;4665;51.368;6.782;2023-04-21T13:18:38;100815.47;;;15.23;100.00
9257;BME280;4665;51.368;6.782;2023-04-21T13:21:04;100810.09;;;15.23;100.00
9257;BME280;4665;51.368;6.782;2023-04-21T13:23:30;100810.63;;;15.33;100.00
9257;BME280;4665;51.368;6.782;2023-04-21T13:25:56;100811.56;;;15.41;100.00
9257;BME280;4665;51.368;6.782;2023-04-21T13:28:21;100793.91;;;15.46;100.00
9257;BME280;4665;51.368;6.782;2023-04-21T13:30:48;100791.41;;;15.60;100.00
9257;BME280;4665;51.368;6.782;2023-04-21T13:33:13;100784.25;;;15.67;100.00
9257;BME280;4665;51.368;6.782;2023-04-21T13:35:39;100774.53;;;15.81;100.00
9257;BME280;4665;51.368;6.782;2023-04-21T13:38:05;100780.41;;;15.91;100.00
9257;BME280;4665;51.368;6.782;2023-04-21T13:40:31;100778.53;;;16.06;100.00
9257;BME280;4665;51.368;6.782;2023-04-21T13:42:56;100770.91;;;16.31;100.00
9257;BME280;4665;51.368;6.782;2023-04-21T13:45:24;100767.63;;;16.36;100.00
9257;BME280;4665;51.368;6.782;2023-04-21T13:47:49;100756.31;;;16.40;100.00
9257;BME280;4665;51.368;6.782;2023-04-21T13:50:16;100751.19;;;16.46;100.00
9257;BME280;4665;51.368;6.782;2023-04-21T13:52:41;100752.59;;;16.41;100.00